Time;durP1;ratioP1;P1;durP2;ratioP2;P2;SDS_P1;SDS_P2;PMS_P1;PMS_P2;Temp;Humidity;BMP_temperature;BMP_pressure;BME280_temperature;BME280_humidity;BME280_pressure;Samples;Min_cycle;Max_cycle;Signal;HPM_P1;HPM_P2
2022/09/06 00:00:54;;;;;;;4.20;1.65;;;;;;;;;;5028735;28;20045;-84
2022/09/06 00:03:20;;;;;;;3.85;1.10;;;;;;;;;;5031345;28;20048;-76
2022/09/06 00:05:47;;;;;;;2.13;1.23;;;;;;;;;;5036953;28;20044;-75
2022/09/06 00:08:14;;;;;;;1.88;1.23;;;;;;;;;;5049494;28;20053;-72
2022/09/06 00:10:42;;;;;;;4.45;1.40;;;;;;;;;;5033873;28;20044;-67
2022/09/06 00:13:12;;;;;;;2.65;1.30;;;;;;;;;;5017084;28;20049;-81
2022/09/06 00:15:39;;;;;;;2.88;1.50;;;;;;;;;;5030057;28;20056;-71
2022/09/06 00:18:07;;;;;;;2.45;1.17;;;;;;;;;;5026041;28;20068;-78
2022/09/06 00:20:34;;;;;;;2.67;1.40;;;;;;;;;;5030396;28;20085;-72
2022/09/06 00:23:03;;;;;;;3.10;1.33;;;;;;;;;;5026415;28;20114;-74
2022/09/06 00:25:30;;;;;;;3.42;1.48;;;;;;;;;;5032467;28;20072;-65
2022/09/06 00:27:57;;;;;;;2.70;1.33;;;;;;;;;;5036192;28;20085;-77
2022/09/06 00:30:26;;;;;;;8.35;1.60;;;;;;;;;;5047350;28;20057;-75
2022/09/06 00:32:52;;;;;;;;;;;;;;;;;;5043105;28;20106;-66
2022/09/06 00:35:19;;;;;;;3.05;1.30;;;;;;;;;;5056527;28;19928;-64
2022/09/06 00:37:46;;;;;;;3.20;1.27;;;;;;;;;;5040325;28;20129;-61
2022/09/06 00:40:13;;;;;;;3.42;1.40;;;;;;;;;;5029926;28;20299;-70
2022/09/06 00:42:40;;;;;;;4.47;1.38;;;;;;;;;;5025801;28;20060;-69
2022/09/06 00:45:08;;;;;;;2.50;1.20;;;;;;;;;;5046052;28;20122;-69
2022/09/06 00:47:38;;;;;;;3.33;1.38;;;;;;;;;;5059384;28;20060;-61
2022/09/06 00:50:05;;;;;;;3.85;1.27;;;;;;;;;;5045630;28;20312;-62
2022/09/06 00:52:32;;;;;;;3.72;1.52;;;;;;;;;;5045719;28;20056;-62
2022/09/06 00:54:59;;;;;;;6.32;2.22;;;;;;;;;;5041948;28;20053;-65
2022/09/06 00:57:27;;;;;;;3.42;1.20;;;;;;;;;;5046066;28;20059;-73
2022/09/06 00:59:54;;;;;;;;;;;;;;;;;;5043195;28;20049;-74
2022/09/06 01:02:20;;;;;;;8.07;1.58;;;;;;;;;;5063964;28;19964;-77
2022/09/06 01:04:50;;;;;;;2.40;1.35;;;;;;;;;;5030775;28;20049;-70
2022/09/06 01:07:21;;;;;;;4.10;1.52;;;;;;;;;;5044159;28;20141;-69
2022/09/06 01:09:55;;;;;;;3.38;1.38;;;;;;;;;;5055009;28;20053;-70
2022/09/06 01:12:28;;;;;;;2.08;1.10;;;;;;;;;;5049686;28;20060;-59
2022/09/06 01:15:01;;;;;;;4.82;1.90;;;;;;;;;;5045961;28;20064;-69
2022/09/06 01:17:33;;;;;;;6.80;2.08;;;;;;;;;;5033064;28;20064;-74
2022/09/06 01:20:13;;;;;;;1.70;1.27;;;;;;;;;;5039208;28;20041;-66
2022/09/06 01:22:52;;;;;;;7.78;2.42;;;;;;;;;;5032525;28;20041;-65
2022/09/06 01:25:27;;;;;;;2.13;1.17;;;;;;;;;;5038988;28;20056;-74
2022/09/06 01:28:06;;;;;;;3.65;1.73;;;;;;;;;;5048949;28;20049;-65
2022/09/06 01:30:34;;;;;;;6.38;2.42;;;;;;;;;;5046306;28;20053;-69
2022/09/06 01:33:05;;;;;;;2.80;1.83;;;;;;;;;;5050879;28;20052;-71
2022/09/06 01:35:35;;;;;;;3.63;1.58;;;;;;;;;;5041279;28;20111;-78
2022/09/06 01:38:05;;;;;;;4.68;2.20;;;;;;;;;;5034367;28;20057;-73
2022/09/06 01:40:35;;;;;;;3.35;1.65;;;;;;;;;;5029805;28;20064;-78
2022/09/06 01:43:03;;;;;;;1.85;1.10;;;;;;;;;;5032768;28;20056;-68
2022/09/06 01:45:38;;;;;;;2.03;1.27;;;;;;;;;;5032280;28;20044;-70
2022/09/06 01:48:09;;;;;;;3.70;1.50;;;;;;;;;;5048800;28;20048;-64
2022/09/06 01:50:45;;;;;;;2.53;1.20;;;;;;;;;;5045302;28;20045;-76
2022/09/06 01:53:21;;;;;;;2.42;1.20;;;;;;;;;;5048960;28;20057;-68
2022/09/06 01:55:51;;;;;;;1.88;1.17;;;;;;;;;;5045761;28;20049;-72
2022/09/06 01:58:34;;;;;;;3.63;1.00;;;;;;;;;;5049994;28;20059;-68
2022/09/06 02:01:02;;;;;;;4.05;1.27;;;;;;;;;;5045349;28;20044;-71
2022/09/06 02:03:28;;;;;;;;;;;;;;;;;;5050050;28;20056;-76
2022/09/06 02:05:57;;;;;;;5.57;1.30;;;;;;;;;;5044279;28;19983;-69
2022/09/06 02:08:35;;;;;;;2.20;1.20;;;;;;;;;;5049055;28;20068;-63
2022/09/06 02:11:02;;;;;;;6.00;1.95;;;;;;;;;;5045527;28;20049;-67
2022/09/06 02:13:32;;;;;;;1.67;1.20;;;;;;;;;;5049136;28;20087;-73
2022/09/06 02:16:00;;;;;;;3.00;1.52;;;;;;;;;;5046729;28;20140;-64
2022/09/06 02:18:29;;;;;;;;;;;;;;;;;;5031468;28;20049;-67
2022/09/06 02:20:57;;;;;;;2.90;1.65;;;;;;;;;;5032498;28;19947;-69
2022/09/06 02:23:27;;;;;;;2.42;1.23;;;;;;;;;;5007567;28;20056;-69
2022/09/06 02:25:56;;;;;;;4.10;1.70;;;;;;;;;;5031356;28;20052;-75
2022/09/06 02:28:22;;;;;;;;;;;;;;;;;;5027665;28;20061;-57
2022/09/06 02:30:52;;;;;;;2.17;1.40;;;;;;;;;;5048752;28;19935;-55
2022/09/06 02:33:20;;;;;;;2.65;1.25;;;;;;;;;;5033303;28;20118;-55
2022/09/06 02:35:48;;;;;;;2.60;1.58;;;;;;;;;;5031514;28;20069;-54
2022/09/06 02:38:17;;;;;;;3.10;1.48;;;;;;;;;;5028759;28;20063;-68
2022/09/06 02:40:44;;;;;;;1.85;1.00;;;;;;;;;;5031413;28;20130;-75
2022/09/06 02:43:11;;;;;;;2.80;1.25;;;;;;;;;;5033583;28;20110;-65
2022/09/06 02:45:37;;;;;;;2.03;1.20;;;;;;;;;;5048662;28;20107;-71
2022/09/06 02:48:06;;;;;;;1.73;1.00;;;;;;;;;;5043272;28;20057;-65
2022/09/06 02:50:33;;;;;;;;;;;;;;;;;;5048784;28;20120;-65
2022/09/06 02:53:04;;;;;;;1.52;0.98;;;;;;;;;;5041652;28;19974;-63
2022/09/06 02:55:31;;;;;;;3.35;1.30;;;;;;;;;;5032759;28;20098;-59
2022/09/06 02:57:57;;;;;;;4.45;1.65;;;;;;;;;;5028526;28;20044;-64
2022/09/06 03:00:24;;;;;;;2.42;1.40;;;;;;;;;;5028434;28;20103;-70
2022/09/06 03:02:50;;;;;;;1.98;1.25;;;;;;;;;;5026551;28;20049;-68
2022/09/06 03:05:18;;;;;;;2.38;1.30;;;;;;;;;;5027789;28;20088;-71
2022/09/06 03:07:45;;;;;;;1.42;1.05;;;;;;;;;;5044207;28;20057;-62
2022/09/06 03:10:11;;;;;;;2.25;1.20;;;;;;;;;;5059467;28;20068;-63
2022/09/06 03:12:38;;;;;;;2.33;1.20;;;;;;;;;;5048222;28;20052;-57
2022/09/06 03:15:06;;;;;;;2.45;1.38;;;;;;;;;;5043773;28;20077;-60
2022/09/06 03:17:33;;;;;;;3.95;1.40;;;;;;;;;;5047563;28;20061;-56
2022/09/06 03:19:59;;;;;;;3.05;1.23;;;;;;;;;;5044451;28;20056;-56
2022/09/06 03:22:28;;;;;;;2.20;1.13;;;;;;;;;;5048077;28;20068;-58
2022/09/06 03:24:54;;;;;;;2.95;1.20;;;;;;;;;;5043646;28;20081;-54
2022/09/06 03:27:21;;;;;;;2.83;1.30;;;;;;;;;;5050641;28;20068;-58
2022/09/06 03:29:48;;;;;;;2.40;1.30;;;;;;;;;;5046019;28;20094;-54
2022/09/06 03:32:15;;;;;;;2.60;1.30;;;;;;;;;;5041236;28;20122;-56
2022/09/06 03:34:41;;;;;;;2.70;1.20;;;;;;;;;;5038345;28;20106;-71
2022/09/06 03:37:08;;;;;;;2.35;1.30;;;;;;;;;;5083927;28;20052;-72
2022/09/06 03:39:36;;;;;;;3.28;1.40;;;;;;;;;;5080029;28;20064;-60
2022/09/06 03:42:02;;;;;;;2.17;1.25;;;;;;;;;;5083908;28;20052;-64
2022/09/06 03:44:31;;;;;;;2.63;1.40;;;;;;;;;;5046571;28;20052;-65
2022/09/06 03:46:58;;;;;;;2.15;1.30;;;;;;;;;;5030668;28;20146;-63
2022/09/06 03:49:24;;;;;;;4.45;1.35;;;;;;;;;;5031193;28;20064;-63
2022/09/06 03:51:51;;;;;;;2.78;1.45;;;;;;;;;;5045894;28;20052;-66
2022/09/06 03:54:17;;;;;;;5.05;2.10;;;;;;;;;;5050528;28;20048;-70
2022/09/06 03:56:45;;;;;;;5.05;2.55;;;;;;;;;;5046959;28;20048;-67
2022/09/06 03:59:12;;;;;;;4.50;1.92;;;;;;;;;;5084380;28;20074;-72
2022/09/06 04:01:39;;;;;;;4.57;2.00;;;;;;;;;;5080276;28;20044;-64
2022/09/06 04:04:05;;;;;;;3.28;1.52;;;;;;;;;;5050002;28;20056;-75
2022/09/06 04:06:32;;;;;;;3.53;1.65;;;;;;;;;;5045833;28;20056;-67
2022/09/06 04:08:58;;;;;;;3.17;1.80;;;;;;;;;;5049609;28;20056;-69
2022/09/06 04:11:25;;;;;;;2.28;1.40;;;;;;;;;;5046266;28;20056;-69
2022/09/06 04:13:53;;;;;;;2.22;1.40;;;;;;;;;;5049995;28;20044;-69
2022/09/06 04:16:20;;;;;;;3.17;1.30;;;;;;;;;;5046261;28;20082;-74
2022/09/06 04:18:46;;;;;;;3.13;1.42;;;;;;;;;;5084542;28;20072;-74
2022/09/06 04:21:13;;;;;;;3.28;1.48;;;;;;;;;;5080059;28;20106;-66
2022/09/06 04:23:39;;;;;;;2.45;1.25;;;;;;;;;;5050347;28;20044;-75
2022/09/06 04:26:06;;;;;;;3.22;1.60;;;;;;;;;;5047176;28;20052;-66
2022/09/06 04:28:32;;;;;;;5.30;1.67;;;;;;;;;;5063022;28;20044;-74
2022/09/06 04:31:02;;;;;;;3.08;1.42;;;;;;;;;;5034673;28;20048;-66
2022/09/06 04:33:29;;;;;;;3.22;1.30;;;;;;;;;;5046284;28;20046;-72
2022/09/06 04:35:57;;;;;;;4.82;1.40;;;;;;;;;;5051235;28;20048;-69
2022/09/06 04:38:23;;;;;;;3.88;1.38;;;;;;;;;;5080166;28;20052;-64
2022/09/06 04:40:50;;;;;;;1.88;1.17;;;;;;;;;;5083872;28;20065;-74
2022/09/06 04:43:17;;;;;;;4.03;1.60;;;;;;;;;;5050882;28;20045;-71
2022/09/06 04:45:44;;;;;;;2.42;1.23;;;;;;;;;;5054238;28;20068;-69
2022/09/06 04:48:12;;;;;;;2.53;1.40;;;;;;;;;;5050010;28;20041;-68
2022/09/06 04:50:39;;;;;;;3.22;1.52;;;;;;;;;;5054465;28;20056;-61
2022/09/06 04:53:06;;;;;;;3.20;1.50;;;;;;;;;;5050469;28;20055;-68
2022/09/06 04:55:33;;;;;;;2.72;1.50;;;;;;;;;;5054666;28;20143;-64
2022/09/06 04:58:02;;;;;;;3.17;1.55;;;;;;;;;;5050558;28;20045;-70
2022/09/06 05:00:30;;;;;;;3.53;1.77;;;;;;;;;;5049817;28;20053;-64
2022/09/06 05:02:57;;;;;;;4.03;1.90;;;;;;;;;;5048150;28;20102;-68
2022/09/06 05:05:25;;;;;;;3.05;1.60;;;;;;;;;;5052772;28;20048;-70
2022/09/06 05:07:51;;;;;;;2.08;1.30;;;;;;;;;;5047642;28;20098;-59
2022/09/06 05:10:18;;;;;;;3.60;1.58;;;;;;;;;;5087644;28;20094;-69
2022/09/06 05:12:47;;;;;;;3.85;1.42;;;;;;;;;;5054207;28;20048;-74
2022/09/06 05:15:14;;;;;;;3.78;1.70;;;;;;;;;;5050912;28;20048;-65
2022/09/06 05:17:43;;;;;;;3.17;1.60;;;;;;;;;;5053001;28;20044;-58
2022/09/06 05:20:10;;;;;;;3.55;1.70;;;;;;;;;;5082083;28;20067;-64
2022/09/06 05:22:38;;;;;;;6.20;3.30;;;;;;;;;;5051469;28;20060;-74
2022/09/06 05:25:05;;;;;;;3.63;1.77;;;;;;;;;;5048281;28;20114;-68
2022/09/06 05:27:32;;;;;;;3.20;1.73;;;;;;;;;;5031269;28;20140;-61
2022/09/06 05:29:59;;;;;;;4.22;1.60;;;;;;;;;;5043996;28;20056;-65
2022/09/06 05:32:25;;;;;;;2.85;1.48;;;;;;;;;;5048518;28;20057;-62
2022/09/06 05:34:52;;;;;;;4.30;1.60;;;;;;;;;;5027229;28;20079;-65
2022/09/06 05:37:19;;;;;;;3.17;1.75;;;;;;;;;;5048678;28;20049;-69
2022/09/06 05:39:47;;;;;;;2.92;1.50;;;;;;;;;;5037321;28;20061;-70
2022/09/06 05:42:13;;;;;;;2.58;1.75;;;;;;;;;;5029968;28;20046;-67
2022/09/06 05:44:40;;;;;;;5.70;1.90;;;;;;;;;;5034023;28;20055;-73
2022/09/06 05:47:06;;;;;;;2.80;1.58;;;;;;;;;;5049475;28;20086;-68
2022/09/06 05:49:33;;;;;;;3.05;1.50;;;;;;;;;;5044873;28;20063;-69
2022/09/06 05:52:00;;;;;;;2.40;1.42;;;;;;;;;;5048457;28;20064;-69
2022/09/06 05:54:26;;;;;;;9.13;4.30;;;;;;;;;;5045696;28;20068;-72
2022/09/06 05:56:54;;;;;;;3.50;1.90;;;;;;;;;;5045966;28;20057;-65
2022/09/06 05:59:21;;;;;;;;;;;;;;;;;;5049363;28;20049;-61
2022/09/06 06:01:48;;;;;;;3.65;2.05;;;;;;;;;;5028144;28;19953;-62
2022/09/06 06:04:14;;;;;;;3.03;1.60;;;;;;;;;;5030355;28;20103;-62
2022/09/06 06:06:42;;;;;;;3.13;1.40;;;;;;;;;;5042954;28;20126;-68
2022/09/06 06:09:08;;;;;;;3.45;1.67;;;;;;;;;;5046321;28;20061;-67
2022/09/06 06:11:35;;;;;;;4.35;1.67;;;;;;;;;;5042211;28;20056;-76
2022/09/06 06:14:04;;;;;;;4.90;1.60;;;;;;;;;;5048467;28;20060;-55
2022/09/06 06:16:33;;;;;;;4.55;1.65;;;;;;;;;;5043006;28;20139;-58
2022/09/06 06:19:00;;;;;;;6.03;2.30;;;;;;;;;;5046967;28;20110;-55
2022/09/06 06:21:27;;;;;;;3.95;1.90;;;;;;;;;;5042278;28;20079;-67
2022/09/06 06:23:55;;;;;;;3.40;1.47;;;;;;;;;;5046720;28;20053;-52
2022/09/06 06:26:23;;;;;;;3.38;1.80;;;;;;;;;;5041909;28;20049;-59
2022/09/06 06:28:50;;;;;;;5.68;2.58;;;;;;;;;;5046350;28;20060;-57
2022/09/06 06:31:20;;;;;;;7.72;3.92;;;;;;;;;;5042650;28;20143;-68
2022/09/06 06:33:47;;;;;;;3.90;2.13;;;;;;;;;;5047014;28;20056;-70
2022/09/06 06:36:21;;;;;;;3.33;1.90;;;;;;;;;;5043163;28;20060;-70
2022/09/06 06:38:48;;;;;;;5.43;2.03;;;;;;;;;;5046648;28;20060;-75
2022/09/06 06:41:22;;;;;;;4.78;1.85;;;;;;;;;;5034975;28;20049;-63
2022/09/06 06:43:51;;;;;;;7.05;2.97;;;;;;;;;;5046818;28;20053;-63
2022/09/06 06:46:36;;;;;;;4.03;2.10;;;;;;;;;;5064573;28;20045;-68
2022/09/06 06:49:08;;;;;;;10.02;5.30;;;;;;;;;;5044521;28;20045;-69
2022/09/06 06:51:36;;;;;;;10.20;5.35;;;;;;;;;;5061706;28;20059;-62
2022/09/06 06:54:02;;;;;;;7.23;3.77;;;;;;;;;;5042744;28;20053;-66
2022/09/06 06:56:30;;;;;;;4.03;2.10;;;;;;;;;;5046722;28;20053;-59
2022/09/06 06:58:58;;;;;;;3.43;1.67;;;;;;;;;;5042054;28;20052;-64
2022/09/06 07:01:25;;;;;;;3.60;1.70;;;;;;;;;;5034491;28;20386;-68
2022/09/06 07:03:53;;;;;;;5.90;3.40;;;;;;;;;;5038757;28;20255;-63
2022/09/06 07:06:23;;;;;;;4.10;2.03;;;;;;;;;;5046714;28;20132;-59
2022/09/06 07:08:49;;;;;;;3.40;1.80;;;;;;;;;;5058544;28;20049;-60
2022/09/06 07:11:16;;;;;;;8.38;2.58;;;;;;;;;;5046946;28;20056;-62
2022/09/06 07:13:43;;;;;;;5.15;2.20;;;;;;;;;;5043422;28;20326;-64
2022/09/06 07:16:12;;;;;;;8.40;4.25;;;;;;;;;;5046159;28;20061;-66
2022/09/06 07:18:41;;;;;;;;;;;;;;;;;;5043096;28;20048;-74
2022/09/06 07:21:09;;;;;;;10.52;5.30;;;;;;;;;;5063513;28;20015;-63
2022/09/06 07:23:37;;;;;;;5.68;2.70;;;;;;;;;;5058890;28;20063;-73
2022/09/06 07:26:04;;;;;;;4.38;2.05;;;;;;;;;;5046247;28;20052;-56
2022/09/06 07:28:31;;;;;;;4.45;1.90;;;;;;;;;;5042454;28;20048;-67
2022/09/06 07:30:59;;;;;;;4.50;2.20;;;;;;;;;;5046723;28;20056;-64
2022/09/06 07:33:26;;;;;;;7.78;2.00;;;;;;;;;;5041016;28;20084;-58
2022/09/06 07:35:56;;;;;;;5.45;3.08;;;;;;;;;;5062110;28;20063;-61
2022/09/06 07:38:25;;;;;;;11.88;5.10;;;;;;;;;;5047399;28;20063;-67
2022/09/06 07:40:57;;;;;;;6.72;2.58;;;;;;;;;;5041352;28;20114;-71
2022/09/06 07:43:24;;;;;;;4.80;2.25;;;;;;;;;;5062908;28;20136;-63
2022/09/06 07:45:58;;;;;;;4.38;2.05;;;;;;;;;;5040971;28;20049;-70
2022/09/06 07:48:25;;;;;;;9.13;5.10;;;;;;;;;;5045635;28;20077;-53
2022/09/06 07:50:51;;;;;;;7.10;3.72;;;;;;;;;;5054296;28;20067;-74
2022/09/06 07:53:18;;;;;;;6.28;3.25;;;;;;;;;;5040685;28;20054;-56
2022/09/06 07:55:45;;;;;;;9.50;5.13;;;;;;;;;;5039961;28;20045;-59
2022/09/06 07:58:13;;;;;;;7.72;3.60;;;;;;;;;;5040316;28;20052;-56
2022/09/06 08:00:40;;;;;;;6.72;3.38;;;;;;;;;;5036776;28;20050;-59
2022/09/06 08:03:07;;;;;;;8.63;4.93;;;;;;;;;;5039362;28;20053;-69
2022/09/06 08:05:34;;;;;;;7.80;4.15;;;;;;;;;;5042018;28;20049;-69
2022/09/06 08:08:00;;;;;;;6.82;3.30;;;;;;;;;;5043277;28;20056;-67
2022/09/06 08:10:27;;;;;;;7.75;4.07;;;;;;;;;;5058926;28;20078;-57
2022/09/06 08:12:54;;;;;;;8.13;4.28;;;;;;;;;;5046053;28;20064;-67
2022/09/06 08:15:22;;;;;;;10.57;5.10;;;;;;;;;;5041403;28;20056;-63
2022/09/06 08:17:49;;;;;;;13.05;5.22;;;;;;;;;;5051296;28;20052;-63
2022/09/06 08:20:16;;;;;;;6.93;3.72;;;;;;;;;;5047496;28;20052;-64
2022/09/06 08:22:43;;;;;;;10.95;5.68;;;;;;;;;;5053006;28;20045;-71
2022/09/06 08:25:10;;;;;;;13.50;5.40;;;;;;;;;;5053630;28;20045;-61
2022/09/06 08:27:37;;;;;;;9.70;4.63;;;;;;;;;;5046933;28;20041;-65
2022/09/06 08:30:04;;;;;;;12.85;6.32;;;;;;;;;;5052043;28;20063;-70
2022/09/06 08:32:35;;;;;;;11.10;5.03;;;;;;;;;;5049745;28;20063;-63
2022/09/06 08:35:01;;;;;;;9.57;5.00;;;;;;;;;;5050907;28;20049;-59
2022/09/06 08:37:28;;;;;;;6.47;3.30;;;;;;;;;;5047803;28;20057;-65
2022/09/06 08:39:54;;;;;;;9.57;4.68;;;;;;;;;;5049941;28;20115;-70
2022/09/06 08:42:21;;;;;;;11.45;5.75;;;;;;;;;;5047778;28;20053;-69
2022/09/06 08:44:50;;;;;;;13.27;5.90;;;;;;;;;;5052124;28;20408;-66
2022/09/06 08:47:18;;;;;;;10.05;5.10;;;;;;;;;;5047384;28;20107;-59
2022/09/06 08:49:46;;;;;;;11.23;4.63;;;;;;;;;;5051949;28;20099;-69
2022/09/06 08:52:25;;;;;;;8.43;4.55;;;;;;;;;;5047578;28;20053;-65
2022/09/06 08:54:55;;;;;;;7.20;3.60;;;;;;;;;;5067949;28;20049;-69
2022/09/06 08:57:30;;;;;;;11.15;4.65;;;;;;;;;;5043627;28;20163;-64
2022/09/06 08:59:59;;;;;;;14.77;4.00;;;;;;;;;;5052143;28;20068;-66
2022/09/06 09:02:26;;;;;;;9.43;3.17;;;;;;;;;;5045898;28;20025;-66
2022/09/06 09:04:57;;;;;;;7.00;2.97;;;;;;;;;;5052238;28;20057;-74
2022/09/06 09:07:35;;;;;;;8.80;3.50;;;;;;;;;;5047933;28;20148;-52
2022/09/06 09:10:04;;;;;;;7.05;3.70;;;;;;;;;;5067673;28;20128;-72
2022/09/06 09:12:32;;;;;;;8.05;3.10;;;;;;;;;;5047245;28;20052;-67
2022/09/06 09:15:02;;;;;;;7.72;3.85;;;;;;;;;;5052874;28;20057;-71
2022/09/06 09:17:30;;;;;;;6.40;2.95;;;;;;;;;;5046600;28;20067;-77
2022/09/06 09:19:58;;;;;;;8.52;3.85;;;;;;;;;;5051574;28;20136;-76
2022/09/06 09:22:27;;;;;;;6.75;2.95;;;;;;;;;;5050922;28;20053;-68
2022/09/06 09:24:57;;;;;;;6.68;3.20;;;;;;;;;;5048628;28;20103;-70
2022/09/06 09:27:25;;;;;;;7.70;3.55;;;;;;;;;;5051353;28;20045;-67
2022/09/06 09:30:00;;;;;;;5.53;2.83;;;;;;;;;;5043074;28;20525;-68
2022/09/06 09:32:30;;;;;;;4.93;2.58;;;;;;;;;;5048812;28;20044;-76
2022/09/06 09:35:15;;;;;;;8.75;3.63;;;;;;;;;;5044842;28;20049;-81
2022/09/06 09:37:42;;;;;;;11.20;3.58;;;;;;;;;;5043807;28;20051;-73
2022/09/06 09:40:13;;;;;;;6.43;2.95;;;;;;;;;;5044192;28;20080;-65
2022/09/06 09:42:40;;;;;;;8.77;3.00;;;;;;;;;;5049217;28;20080;-80
2022/09/06 09:45:21;;;;;;;10.18;3.65;;;;;;;;;;5044741;28;20052;-68
2022/09/06 09:47:49;;;;;;;9.70;3.58;;;;;;;;;;5063895;28;20050;-74
2022/09/06 09:50:25;;;;;;;11.02;3.60;;;;;;;;;;5041367;28;20048;-72
2022/09/06 09:52:52;;;;;;;8.95;3.97;;;;;;;;;;5048616;28;20056;-73
2022/09/06 09:55:21;;;;;;;6.05;3.30;;;;;;;;;;5043886;28;20385;-64
2022/09/06 09:57:49;;;;;;;10.05;3.85;;;;;;;;;;5048057;28;20057;-73
2022/09/06 10:00:31;;;;;;;7.00;3.00;;;;;;;;;;5044218;28;20045;-82
2022/09/06 10:02:57;;;;;;;8.35;3.30;;;;;;;;;;5046681;28;20057;-69
2022/09/06 10:05:26;;;;;;;8.32;3.40;;;;;;;;;;5044552;28;20140;-70
2022/09/06 10:07:55;;;;;;;7.60;2.42;;;;;;;;;;5048510;28;20139;-64
2022/09/06 10:10:22;;;;;;;7.85;3.33;;;;;;;;;;5043133;28;20045;-70
2022/09/06 10:12:48;;;;;;;8.35;3.03;;;;;;;;;;5047790;28;20107;-81
2022/09/06 10:15:30;;;;;;;5.57;2.35;;;;;;;;;;5043250;28;20079;-83
2022/09/06 10:18:00;;;;;;;8.10;3.50;;;;;;;;;;5048307;28;20061;-85
2022/09/06 10:20:32;;;;;;;6.78;1.95;;;;;;;;;;5043509;28;20060;-74
2022/09/06 10:23:01;;;;;;;4.70;1.90;;;;;;;;;;5046990;28;20045;-68
2022/09/06 10:25:39;;;;;;;6.45;2.25;;;;;;;;;;5059296;28;20060;-70
2022/09/06 10:28:24;;;;;;;6.00;1.90;;;;;;;;;;5046979;28;20135;-81
2022/09/06 10:30:58;;;;;;;9.10;1.90;;;;;;;;;;5034398;28;20056;-80
2022/09/06 10:33:27;;;;;;;5.47;2.40;;;;;;;;;;5046789;28;20048;-74
2022/09/06 10:35:57;;;;;;;3.10;1.67;;;;;;;;;;5042510;28;20043;-73
2022/09/06 10:38:31;;;;;;;5.78;1.77;;;;;;;;;;5055653;28;20053;-70
2022/09/06 10:41:06;;;;;;;4.30;1.80;;;;;;;;;;5058601;28;20155;-71
2022/09/06 10:43:36;;;;;;;3.20;1.63;;;;;;;;;;5047990;28;20049;-73
2022/09/06 10:46:07;;;;;;;6.00;1.90;;;;;;;;;;5043947;28;20118;-72
2022/09/06 10:48:41;;;;;;;3.50;1.58;;;;;;;;;;5046786;28;20139;-70
2022/09/06 10:51:17;;;;;;;3.13;1.48;;;;;;;;;;5042621;28;20195;-68
2022/09/06 10:53:46;;;;;;;2.30;1.48;;;;;;;;;;5064626;28;20057;-81
2022/09/06 10:56:16;;;;;;;4.70;2.20;;;;;;;;;;5044299;28;20057;-76
2022/09/06 10:58:47;;;;;;;8.90;2.33;;;;;;;;;;5045891;28;20053;-73
2022/09/06 11:01:19;;;;;;;3.13;1.45;;;;;;;;;;5044116;28;20052;-70
2022/09/06 11:03:46;;;;;;;10.15;2.60;;;;;;;;;;5041889;28;20063;-59
2022/09/06 11:06:15;;;;;;;6.07;2.42;;;;;;;;;;5043257;28;20048;-64
2022/09/06 11:08:46;;;;;;;4.03;1.92;;;;;;;;;;5040488;28;20055;-72
2022/09/06 11:11:16;;;;;;;4.72;1.70;;;;;;;;;;5047365;28;20064;-67
2022/09/06 11:13:43;;;;;;;7.57;2.75;;;;;;;;;;5041225;28;20053;-70
2022/09/06 11:16:11;;;;;;;4.38;2.08;;;;;;;;;;5046250;28;20049;-70
2022/09/06 11:18:40;;;;;;;6.15;2.55;;;;;;;;;;5042278;28;20053;-72
2022/09/06 11:21:24;;;;;;;5.20;2.35;;;;;;;;;;5046778;28;20055;-69
2022/09/06 11:23:53;;;;;;;7.40;2.95;;;;;;;;;;5040120;28;20049;-75
2022/09/06 11:26:30;;;;;;;5.50;2.35;;;;;;;;;;5037350;28;20048;-79
2022/09/06 11:28:57;;;;;;;9.02;2.25;;;;;;;;;;5075710;28;20052;-70
2022/09/06 11:31:28;;;;;;;3.33;1.80;;;;;;;;;;5049029;28;20059;-62
2022/09/06 11:34:07;;;;;;;7.32;2.08;;;;;;;;;;5046503;28;20044;-78
2022/09/06 11:36:36;;;;;;;3.00;1.60;;;;;;;;;;5068222;28;20052;-83
2022/09/06 11:39:06;;;;;;;3.25;1.90;;;;;;;;;;5046855;28;20044;-77
2022/09/06 11:41:34;;;;;;;4.45;1.92;;;;;;;;;;5049466;28;20053;-73
2022/09/06 11:44:01;;;;;;;6.35;2.00;;;;;;;;;;5045228;28;20044;-83
2022/09/06 11:46:47;;;;;;;6.32;2.10;;;;;;;;;;5049393;28;20277;-69
2022/09/06 11:49:28;;;;;;;5.10;2.72;;;;;;;;;;5044184;28;20052;-66
2022/09/06 11:51:55;;;;;;;3.33;1.65;;;;;;;;;;5065230;28;20049;-77
2022/09/06 11:54:25;;;;;;;5.75;2.15;;;;;;;;;;5046344;28;20088;-69
2022/09/06 11:56:57;;;;;;;5.50;2.17;;;;;;;;;;5049991;28;20052;-72
2022/09/06 11:59:30;;;;;;;5.43;2.05;;;;;;;;;;5044450;28;20056;-72
2022/09/06 12:02:00;;;;;;;3.92;1.80;;;;;;;;;;5046521;28;20066;-59
2022/09/06 12:05:03;;;;;;;4.45;1.85;;;;;;;;;;5044870;28;20051;-76
2022/09/06 12:07:31;;;;;;;5.97;2.33;;;;;;;;;;5049381;28;20134;-70
2022/09/06 12:10:01;;;;;;;3.50;1.92;;;;;;;;;;5045320;28;20056;-63
2022/09/06 12:12:41;;;;;;;4.63;2.00;;;;;;;;;;5049333;28;20048;-75
2022/09/06 12:15:23;;;;;;;5.20;2.20;;;;;;;;;;5045058;28;20045;-61
2022/09/06 12:17:50;;;;;;;6.57;1.60;;;;;;;;;;5048758;28;20059;-74
2022/09/06 12:20:31;;;;;;;7.03;1.50;;;;;;;;;;5044989;28;20052;-78
2022/09/06 12:22:58;;;;;;;3.92;1.65;;;;;;;;;;5080746;28;20110;-72
2022/09/06 12:25:43;;;;;;;6.18;2.42;;;;;;;;;;5078517;28;20081;-69
2022/09/06 12:28:13;;;;;;;2.60;1.55;;;;;;;;;;5038997;28;20052;-70
2022/09/06 12:30:42;;;;;;;3.70;1.65;;;;;;;;;;5040595;28;20118;-72
2022/09/06 12:33:13;;;;;;;5.03;1.75;;;;;;;;;;5027936;28;20057;-63
2022/09/06 12:35:40;;;;;;;4.38;1.95;;;;;;;;;;5029290;28;20053;-58
2022/09/06 12:38:08;;;;;;;6.68;2.25;;;;;;;;;;5036601;28;20057;-76
2022/09/06 12:40:37;;;;;;;4.25;1.95;;;;;;;;;;5032895;28;20041;-66
2022/09/06 12:43:04;;;;;;;8.52;2.33;;;;;;;;;;5035091;28;20083;-74
2022/09/06 12:45:32;;;;;;;5.40;2.28;;;;;;;;;;5031421;28;20060;-64
2022/09/06 12:48:09;;;;;;;5.20;2.63;;;;;;;;;;5039275;28;20045;-63
2022/09/06 12:50:36;;;;;;;4.15;2.40;;;;;;;;;;5033491;28;20068;-73
2022/09/06 12:53:04;;;;;;;5.00;2.30;;;;;;;;;;5031322;28;20132;-69
2022/09/06 12:55:32;;;;;;;6.13;2.75;;;;;;;;;;5037452;28;20134;-60
2022/09/06 12:57:59;;;;;;;6.32;2.25;;;;;;;;;;5033272;28;20111;-58
2022/09/06 13:00:28;;;;;;;5.55;1.80;;;;;;;;;;5040842;28;20053;-65
2022/09/06 13:02:59;;;;;;;8.70;2.65;;;;;;;;;;5027570;28;20056;-67
2022/09/06 13:05:26;;;;;;;6.72;2.22;;;;;;;;;;5042417;28;20045;-74
2022/09/06 13:07:55;;;;;;;2.83;1.40;;;;;;;;;;5035825;28;20139;-62
2022/09/06 13:10:24;;;;;;;8.40;3.20;;;;;;;;;;5037518;28;20056;-58
2022/09/06 13:12:51;;;;;;;4.55;1.98;;;;;;;;;;5037194;28;20053;-66
2022/09/06 13:15:21;;;;;;;4.13;1.92;;;;;;;;;;5036577;28;20048;-65
2022/09/06 13:17:48;;;;;;;4.63;1.73;;;;;;;;;;5037524;28;20153;-51
2022/09/06 13:20:22;;;;;;;7.25;2.88;;;;;;;;;;5047443;28;20045;-68
2022/09/06 13:22:50;;;;;;;3.47;1.60;;;;;;;;;;5032995;28;20060;-59
2022/09/06 13:25:23;;;;;;;4.80;2.28;;;;;;;;;;5039058;28;20057;-58
2022/09/06 13:27:50;;;;;;;3.83;1.80;;;;;;;;;;5048200;28;20083;-55
2022/09/06 13:30:32;;;;;;;4.95;1.77;;;;;;;;;;5047462;28;20053;-56
2022/09/06 13:32:59;;;;;;;9.77;3.45;;;;;;;;;;5057331;28;20049;-61
2022/09/06 13:35:28;;;;;;;6.25;2.30;;;;;;;;;;5033636;28;20067;-59
2022/09/06 13:38:11;;;;;;;8.05;2.83;;;;;;;;;;5025891;28;20045;-66
2022/09/06 13:40:40;;;;;;;5.35;1.80;;;;;;;;;;5045155;28;20060;-59
2022/09/06 13:43:09;;;;;;;6.28;1.90;;;;;;;;;;5008629;28;20062;-73
2022/09/06 13:45:36;;;;;;;8.30;2.80;;;;;;;;;;5018024;28;20059;-69
2022/09/06 13:48:03;;;;;;;3.95;1.85;;;;;;;;;;5026454;28;20061;-65
2022/09/06 13:50:32;;;;;;;8.23;2.20;;;;;;;;;;5032320;28;20053;-71
2022/09/06 13:52:58;;;;;;;3.17;1.70;;;;;;;;;;5047785;28;20053;-72
2022/09/06 13:55:28;;;;;;;3.10;1.42;;;;;;;;;;5027135;28;20060;-66
2022/09/06 13:57:55;;;;;;;3.65;1.90;;;;;;;;;;5031810;28;20107;-59
2022/09/06 14:00:21;;;;;;;6.18;2.47;;;;;;;;;;5027592;28;20056;-64
2022/09/06 14:02:49;;;;;;;3.92;1.63;;;;;;;;;;5029877;28;20045;-62
2022/09/06 14:05:16;;;;;;;3.72;1.67;;;;;;;;;;5026268;28;20049;-66
2022/09/06 14:07:46;;;;;;;7.38;1.98;;;;;;;;;;5037221;28;20079;-67
2022/09/06 14:10:13;;;;;;;3.42;1.30;;;;;;;;;;5038493;28;20126;-68
2022/09/06 14:12:40;;;;;;;2.13;1.30;;;;;;;;;;5045816;28;20049;-63
2022/09/06 14:15:07;;;;;;;4.20;1.20;;;;;;;;;;5044951;28;20049;-66
2022/09/06 14:17:34;;;;;;;2.40;1.67;;;;;;;;;;5046901;28;20139;-66
2022/09/06 14:20:01;;;;;;;6.70;1.80;;;;;;;;;;5043168;28;20130;-71
2022/09/06 14:22:27;;;;;;;3.10;1.35;;;;;;;;;;5046527;28;20072;-71
2022/09/06 14:24:55;;;;;;;3.38;1.52;;;;;;;;;;5042585;28;20059;-63
2022/09/06 14:27:22;;;;;;;2.95;1.42;;;;;;;;;;5049872;28;20057;-65
2022/09/06 14:29:49;;;;;;;4.75;1.42;;;;;;;;;;5047057;28;20061;-52
2022/09/06 14:32:15;;;;;;;3.92;1.50;;;;;;;;;;5069003;28;20064;-75
2022/09/06 14:34:42;;;;;;;3.33;1.40;;;;;;;;;;5049487;28;20056;-65
2022/09/06 14:37:09;;;;;;;4.80;1.70;;;;;;;;;;5050200;28;20052;-71
2022/09/06 14:39:38;;;;;;;4.95;1.95;;;;;;;;;;5057142;28;20056;-75
2022/09/06 14:42:04;;;;;;;;;;;;;;;;;;5047147;28;20061;-63
2022/09/06 14:44:32;;;;;;;3.88;1.30;;;;;;;;;;5052286;28;20011;-72
2022/09/06 14:46:59;;;;;;;5.75;1.88;;;;;;;;;;5047788;28;20053;-64
2022/09/06 14:49:26;;;;;;;3.70;1.58;;;;;;;;;;5051807;28;20060;-73
2022/09/06 14:51:52;;;;;;;2.92;1.40;;;;;;;;;;5046581;28;20084;-72
2022/09/06 14:54:19;;;;;;;2.42;1.50;;;;;;;;;;5050150;28;20052;-74
2022/09/06 14:56:46;;;;;;;2.47;1.58;;;;;;;;;;5046154;28;20106;-70